sensor_id;sensor_type;location;lat;lon;timestamp;pressure;altitude;pressure_sealevel;temperature;humidity
51259;BME280;37327;54.254;18.504;2023-03-26T00:00:48;99309.47;;;5.83;100.00
51259;BME280;37327;54.254;18.504;2023-03-26T00:04:11;99297.93;;;5.82;100.00
51259;BME280;37327;54.254;18.504;2023-03-26T00:07:29;99305.77;;;5.84;100.00
51259;BME280;37327;54.254;18.504;2023-03-26T00:10:46;99309.09;;;5.86;100.00
51259;BME280;37327;54.254;18.504;2023-03-26T00:14:03;99295.52;;;5.87;100.00
51259;BME280;37327;54.254;18.504;2023-03-26T00:17:20;99295.52;;;5.87;100.00
51259;BME280;37327;54.254;18.504;2023-03-26T00:20:38;99291.03;;;5.88;100.00
51259;BME280;37327;54.254;18.504;2023-03-26T00:24:03;99295.52;;;5.87;100.00
51259;BME280;37327;54.254;18.504;2023-03-26T00:27:22;99300.05;;;5.87;100.00
51259;BME280;37327;54.254;18.504;2023-03-26T00:30:40;99291.85;;;5.88;100.00
51259;BME280;37327;54.254;18.504;2023-03-26T00:33:57;99293.71;;;5.88;100.00
51259;BME280;37327;54.254;18.504;2023-03-26T00:37:21;99286.48;;;5.88;100.00
51259;BME280;37327;54.254;18.504;2023-03-26T00:40:42;99286.48;;;5.88;100.00
51259;BME280;37327;54.254;18.504;2023-03-26T00:44:06;99282.13;;;5.87;100.00
51259;BME280;37327;54.254;18.504;2023-03-26T00:47:26;99278.80;;;5.85;100.00
51259;BME280;37327;54.254;18.504;2023-03-26T00:50:45;99271.98;;;5.83;100.00
51259;BME280;37327;54.254;18.504;2023-03-26T00:54:03;99279.37;;;5.81;100.00
51259;BME280;37327;54.254;18.504;2023-03-26T00:57:20;99275.21;;;5.78;100.00
51259;BME280;37327;54.254;18.504;2023-03-26T01:00:44;99266.52;;;5.76;100.00
51259;BME280;37327;54.254;18.504;2023-03-26T01:07:35;99261.52;;;5.73;100.00
51259;BME280;37327;54.254;18.504;2023-03-26T01:10:54;99262.07;;;5.68;100.00
51259;BME280;37327;54.254;18.504;2023-03-26T01:14:25;99260.95;;;5.63;100.00
51259;BME280;37327;54.254;18.504;2023-03-26T01:17:45;99260.30;;;5.61;100.00
51259;BME280;37327;54.254;18.504;2023-03-26T01:21:03;99253.25;;;5.60;100.00
51259;BME280;37327;54.254;18.504;2023-03-26T01:24:29;99254.94;;;5.61;100.00
51259;BME280;37327;54.254;18.504;2023-03-26T01:27:49;99248.93;;;5.59;100.00
51259;BME280;37327;54.254;18.504;2023-03-26T01:31:18;99247.25;;;5.58;100.00
51259;BME280;37327;54.254;18.504;2023-03-26T01:41:46;99240.05;;;5.58;100.00
51259;BME280;37327;54.254;18.504;2023-03-26T01:45:11;99243.75;;;5.57;100.00
51259;BME280;37327;54.254;18.504;2023-03-26T01:48:34;99234.04;;;5.56;100.00
51259;BME280;37327;54.254;18.504;2023-03-26T01:51:52;99235.90;;;5.56;100.00
51259;BME280;37327;54.254;18.504;2023-03-26T01:55:12;99227.21;;;5.53;100.00
51259;BME280;37327;54.254;18.504;2023-03-26T01:58:37;99221.86;;;5.53;100.00
51259;BME280;37327;54.254;18.504;2023-03-26T02:02:04;99220.00;;;5.54;100.00
51259;BME280;37327;54.254;18.504;2023-03-26T02:05:32;99211.15;;;5.53;100.00
51259;BME280;37327;54.254;18.504;2023-03-26T02:08:58;99213.01;;;5.53;100.00
51259;BME280;37327;54.254;18.504;2023-03-26T02:12:20;99220.65;;;5.56;100.00
51259;BME280;37327;54.254;18.504;2023-03-26T02:15:39;99216.80;;;5.59;100.00
51259;BME280;37327;54.254;18.504;2023-03-26T02:18:57;99219.75;;;5.64;100.00
51259;BME280;37327;54.254;18.504;2023-03-26T02:22:16;99212.84;;;5.69;100.00
51259;BME280;37327;54.254;18.504;2023-03-26T02:25:33;99217.63;;;5.74;100.00
51259;BME280;37327;54.254;18.504;2023-03-26T02:28:55;99210.09;;;5.78;100.00
51259;BME280;37327;54.254;18.504;2023-03-26T02:32:13;99207.22;;;5.79;100.00
51259;BME280;37327;54.254;18.504;2023-03-26T02:35:30;99208.26;;;5.78;100.00
51259;BME280;37327;54.254;18.504;2023-03-26T02:38:47;99205.20;;;5.81;100.00
51259;BME280;37327;54.254;18.504;2023-03-26T02:42:04;99208.52;;;5.83;100.00
51259;BME280;37327;54.254;18.504;2023-03-26T02:45:21;99197.45;;;5.86;100.00
51259;BME280;37327;54.254;18.504;2023-03-26T02:48:39;99196.06;;;5.90;100.00
51259;BME280;37327;54.254;18.504;2023-03-26T02:51:57;99194.03;;;5.92;100.00
51259;BME280;37327;54.254;18.504;2023-03-26T02:55:15;99193.01;;;5.93;100.00
51259;BME280;37327;54.254;18.504;2023-03-26T02:58:32;99193.68;;;5.96;100.00
51259;BME280;37327;54.254;18.504;2023-03-26T03:01:50;99192.51;;;5.98;100.00
51259;BME280;37327;54.254;18.504;2023-03-26T03:05:07;99187.15;;;5.98;100.00
51259;BME280;37327;54.254;18.504;2023-03-26T03:08:26;99187.79;;;6.00;100.00
51259;BME280;37327;54.254;18.504;2023-03-26T03:11:44;99186.97;;;6.00;100.00
51259;BME280;37327;54.254;18.504;2023-03-26T03:15:03;99182.43;;;6.00;100.00
51259;BME280;37327;54.254;18.504;2023-03-26T03:18:20;99186.58;;;6.03;100.00
51259;BME280;37327;54.254;18.504;2023-03-26T03:21:37;99175.69;;;6.04;100.00
51259;BME280;37327;54.254;18.504;2023-03-26T03:24:55;99186.04;;;6.07;100.00
51259;BME280;37327;54.254;18.504;2023-03-26T03:28:15;99178.83;;;6.08;100.00
51259;BME280;37327;54.254;18.504;2023-03-26T03:31:34;99182.98;;;6.10;100.00
51259;BME280;37327;54.254;18.504;2023-03-26T03:34:52;99179.08;;;6.13;100.00
51259;BME280;37327;54.254;18.504;2023-03-26T03:38:09;99179.95;;;6.13;100.00
51259;BME280;37327;54.254;18.504;2023-03-26T03:41:28;99174.38;;;6.15;100.00
51259;BME280;37327;54.254;18.504;2023-03-26T03:44:45;99169.02;;;6.15;100.00
51259;BME280;37327;54.254;18.504;2023-03-26T03:48:03;99168.18;;;6.15;100.00
51259;BME280;37327;54.254;18.504;2023-03-26T03:51:21;99169.02;;;6.15;100.00
51259;BME280;37327;54.254;18.504;2023-03-26T03:54:38;99164.69;;;6.14;100.00
51259;BME280;37327;54.254;18.504;2023-03-26T03:57:55;99169.41;;;6.12;100.00
51259;BME280;37327;54.254;18.504;2023-03-26T04:01:14;99160.72;;;6.10;100.00
51259;BME280;37327;54.254;18.504;2023-03-26T04:04:32;99160.07;;;6.08;100.00
51259;BME280;37327;54.254;18.504;2023-03-26T04:07:49;99167.28;;;6.07;100.00
51259;BME280;37327;54.254;18.504;2023-03-26T04:11:07;99166.62;;;6.05;100.00
51259;BME280;37327;54.254;18.504;2023-03-26T04:14:24;99163.75;;;6.07;100.00
51259;BME280;37327;54.254;18.504;2023-03-26T04:17:42;99163.58;;;6.08;100.00
51259;BME280;37327;54.254;18.504;2023-03-26T04:21:00;99156.36;;;6.09;100.00
51259;BME280;37327;54.254;18.504;2023-03-26T04:24:18;99158.05;;;6.10;100.00
51259;BME280;37327;54.254;18.504;2023-03-26T04:27:40;99150.64;;;6.12;100.00
51259;BME280;37327;54.254;18.504;2023-03-26T04:31:00;99159.50;;;6.12;100.00
51259;BME280;37327;54.254;18.504;2023-03-26T04:34:22;99151.47;;;6.12;100.00
51259;BME280;37327;54.254;18.504;2023-03-26T04:37:43;99152.29;;;6.13;100.00
51259;BME280;37327;54.254;18.504;2023-03-26T04:41:01;99144.46;;;6.11;100.00
51259;BME280;37327;54.254;18.504;2023-03-26T04:44:19;99147.97;;;6.12;100.00
51259;BME280;37327;54.254;18.504;2023-03-26T04:47:38;99147.97;;;6.12;100.00
51259;BME280;37327;54.254;18.504;2023-03-26T04:50:56;99138.07;;;6.12;100.00
51259;BME280;37327;54.254;18.504;2023-03-26T04:54:15;99140.57;;;6.14;100.00
51259;BME280;37327;54.254;18.504;2023-03-26T04:57:38;99135.85;;;6.16;100.00
51259;BME280;37327;54.254;18.504;2023-03-26T05:01:02;99141.85;;;6.18;100.00
51259;BME280;37327;54.254;18.504;2023-03-26T05:04:20;99146.86;;;6.21;100.00
51259;BME280;37327;54.254;18.504;2023-03-26T05:07:37;99140.27;;;6.24;100.00
51259;BME280;37327;54.254;18.504;2023-03-26T05:10:57;99145.27;;;6.27;100.00
51259;BME280;37327;54.254;18.504;2023-03-26T05:14:14;99145.46;;;6.25;100.00
51259;BME280;37327;54.254;18.504;2023-03-26T05:17:31;99143.42;;;6.27;100.00
51259;BME280;37327;54.254;18.504;2023-03-26T05:20:55;99149.43;;;6.29;100.00
51259;BME280;37327;54.254;18.504;2023-03-26T05:24:13;99145.06;;;6.28;100.00
51259;BME280;37327;54.254;18.504;2023-03-26T05:27:32;99152.29;;;6.28;100.00
51259;BME280;37327;54.254;18.504;2023-03-26T05:30:51;99152.75;;;6.31;100.00
51259;BME280;37327;54.254;18.504;2023-03-26T05:34:09;99152.75;;;6.31;100.00
51259;BME280;37327;54.254;18.504;2023-03-26T05:37:30;99162.43;;;6.32;100.00
51259;BME280;37327;54.254;18.504;2023-03-26T05:40:48;99165.12;;;6.32;100.00
51259;BME280;37327;54.254;18.504;2023-03-26T05:44:05;99161.61;;;6.32;100.00
51259;BME280;37327;54.254;18.504;2023-03-26T05:47:23;99157.72;;;6.35;100.00
51259;BME280;37327;54.254;18.504;2023-03-26T05:50:41;99157.99;;;6.40;100.00
51259;BME280;37327;54.254;18.504;2023-03-26T05:53:58;99157.88;;;6.48;100.00
51259;BME280;37327;54.254;18.504;2023-03-26T05:57:15;99152.40;;;6.56;100.00
51259;BME280;37327;54.254;18.504;2023-03-26T06:00:34;99156.18;;;6.62;100.00
51259;BME280;37327;54.254;18.504;2023-03-26T06:03:54;99151.91;;;6.67;100.00
51259;BME280;37327;54.254;18.504;2023-03-26T06:07:12;99156.52;;;6.73;100.00
51259;BME280;37327;54.254;18.504;2023-03-26T06:10:30;99160.29;;;6.79;100.00
51259;BME280;37327;54.254;18.504;2023-03-26T06:13:47;99162.80;;;6.81;100.00
51259;BME280;37327;54.254;18.504;2023-03-26T06:17:05;99152.89;;;6.81;100.00
51259;BME280;37327;54.254;18.504;2023-03-26T06:20:22;99156.20;;;6.83;100.00
51259;BME280;37327;54.254;18.504;2023-03-26T06:23:39;99153.73;;;6.82;100.00
51259;BME280;37327;54.254;18.504;2023-03-26T06:26:57;99162.80;;;6.81;100.00
51259;BME280;37327;54.254;18.504;2023-03-26T06:30:14;99157.43;;;6.81;100.00
51259;BME280;37327;54.254;18.504;2023-03-26T06:33:32;99161.51;;;6.77;100.00
51259;BME280;37327;54.254;18.504;2023-03-26T06:36:49;99162.73;;;6.74;100.00
51259;BME280;37327;54.254;18.504;2023-03-26T06:40:09;99169.93;;;6.73;100.00
51259;BME280;37327;54.254;18.504;2023-03-26T06:43:27;99160.87;;;6.75;100.00
51259;BME280;37327;54.254;18.504;2023-03-26T06:46:44;99166.23;;;6.75;100.00
51259;BME280;37327;54.254;18.504;2023-03-26T06:50:04;99163.56;;;6.75;100.00
51259;BME280;37327;54.254;18.504;2023-03-26T06:53:21;99168.73;;;6.76;100.00
51259;BME280;37327;54.254;18.504;2023-03-26T06:56:38;99165.02;;;6.77;100.00
51259;BME280;37327;54.254;18.504;2023-03-26T06:59:56;99173.92;;;6.78;100.00
51259;BME280;37327;54.254;18.504;2023-03-26T07:03:13;99170.84;;;6.81;100.00
51259;BME280;37327;54.254;18.504;2023-03-26T07:06:33;99165.75;;;6.86;100.00
51259;BME280;37327;54.254;18.504;2023-03-26T07:09:50;99164.52;;;6.88;100.00
51259;BME280;37327;54.254;18.504;2023-03-26T07:13:07;99169.30;;;6.93;100.00
51259;BME280;37327;54.254;18.504;2023-03-26T07:16:25;99173.29;;;6.97;100.00
51259;BME280;37327;54.254;18.504;2023-03-26T07:19:42;99169.21;;;7.01;100.00
51259;BME280;37327;54.254;18.504;2023-03-26T07:23:00;99175.85;;;7.05;100.00
51259;BME280;37327;54.254;18.504;2023-03-26T07:26:29;99174.44;;;7.09;100.00
51259;BME280;37327;54.254;18.504;2023-03-26T07:29:57;99181.45;;;7.10;100.00
51259;BME280;37327;54.254;18.504;2023-03-26T07:33:28;99188.49;;;7.11;100.00
51259;BME280;37327;54.254;18.504;2023-03-26T07:37:13;99182.09;;;7.12;100.00
51259;BME280;37327;54.254;18.504;2023-03-26T07:43:55;99181.72;;;7.16;100.00
51259;BME280;37327;54.254;18.504;2023-03-26T07:47:23;99181.34;;;7.19;100.00
51259;BME280;37327;54.254;18.504;2023-03-26T07:50:46;99185.09;;;7.24;100.00
51259;BME280;37327;54.254;18.504;2023-03-26T07:54:04;99189.63;;;7.24;100.00
51259;BME280;37327;54.254;18.504;2023-03-26T08:00:55;99199.55;;;7.23;100.00
51259;BME280;37327;54.254;18.504;2023-03-26T08:07:55;99189.88;;;7.50;100.00
51259;BME280;37327;54.254;18.504;2023-03-26T08:14:50;99184.56;;;7.85;100.00
51259;BME280;37327;54.254;18.504;2023-03-26T08:32:19;99191.50;;;8.91;99.49
51259;BME280;37327;54.254;18.504;2023-03-26T08:35:38;99192.32;;;8.98;97.74
51259;BME280;37327;54.254;18.504;2023-03-26T08:38:59;99205.59;;;8.93;96.05
51259;BME280;37327;54.254;18.504;2023-03-26T08:49:28;99202.22;;;8.78;96.03
51259;BME280;37327;54.254;18.504;2023-03-26T09:10:25;99204.77;;;8.99;95.19
51259;BME280;37327;54.254;18.504;2023-03-26T09:13:59;99197.11;;;9.03;94.37
51259;BME280;37327;54.254;18.504;2023-03-26T09:38:27;99196.97;;;9.84;90.68
51259;BME280;37327;54.254;18.504;2023-03-26T09:48:49;99215.80;;;10.04;91.30
51259;BME280;37327;54.254;18.504;2023-03-26T10:02:49;99224.48;;;10.13;89.52
51259;BME280;37327;54.254;18.504;2023-03-26T10:06:21;99237.80;;;9.81;91.37
51259;BME280;37327;54.254;18.504;2023-03-26T10:13:27;99241.31;;;9.68;93.47
51259;BME280;37327;54.254;18.504;2023-03-26T10:27:25;99225.55;;;9.32;92.78
51259;BME280;37327;54.254;18.504;2023-03-26T10:37:56;99239.04;;;9.72;91.79
51259;BME280;37327;54.254;18.504;2023-03-26T10:41:19;99227.20;;;10.00;91.11
51259;BME280;37327;54.254;18.504;2023-03-26T10:44:48;99232.33;;;10.48;91.39
51259;BME280;37327;54.254;18.504;2023-03-26T10:48:15;99228.36;;;10.57;88.09
51259;BME280;37327;54.254;18.504;2023-03-26T10:58:38;99229.49;;;10.88;84.87
51259;BME280;37327;54.254;18.504;2023-03-26T11:16:05;99244.63;;;10.89;78.86
51259;BME280;37327;54.254;18.504;2023-03-26T11:33:30;99265.80;;;9.87;85.04
51259;BME280;37327;54.254;18.504;2023-03-26T11:36:55;99256.86;;;10.20;84.62
51259;BME280;37327;54.254;18.504;2023-03-26T11:40:17;99244.59;;;10.44;81.35
51259;BME280;37327;54.254;18.504;2023-03-26T11:43:40;99240.96;;;10.77;80.32
51259;BME280;37327;54.254;18.504;2023-03-26T11:47:02;99252.27;;;10.99;80.52
51259;BME280;37327;54.254;18.504;2023-03-26T11:50:28;99248.09;;;11.03;79.92
51259;BME280;37327;54.254;18.504;2023-03-26T11:53:48;99258.79;;;10.78;79.43
51259;BME280;37327;54.254;18.504;2023-03-26T11:57:11;99265.77;;;10.47;81.21
51259;BME280;37327;54.254;18.504;2023-03-26T12:00:32;99271.57;;;10.17;83.63
51259;BME280;37327;54.254;18.504;2023-03-26T12:04:07;99272.63;;;10.03;86.18
51259;BME280;37327;54.254;18.504;2023-03-26T12:07:30;99255.59;;;10.22;87.39
51259;BME280;37327;54.254;18.504;2023-03-26T12:10:43;99255.38;;;10.44;86.81
51259;BME280;37327;54.254;18.504;2023-03-26T12:14:06;99251.01;;;10.50;85.50
51259;BME280;37327;54.254;18.504;2023-03-26T12:17:36;99261.98;;;10.61;85.94
51259;BME280;37327;54.254;18.504;2023-03-26T12:24:25;99255.27;;;10.84;84.12
51259;BME280;37327;54.254;18.504;2023-03-26T12:27:51;99265.86;;;10.79;82.80
51259;BME280;37327;54.254;18.504;2023-03-26T12:31:13;99265.33;;;10.57;82.30
51259;BME280;37327;54.254;18.504;2023-03-26T12:34:35;99262.45;;;10.38;82.01
51259;BME280;37327;54.254;18.504;2023-03-26T12:38:12;99278.87;;;10.10;82.19
51259;BME280;37327;54.254;18.504;2023-03-26T12:41:20;99275.95;;;9.92;82.13
51259;BME280;37327;54.254;18.504;2023-03-26T12:44:45;99280.91;;;9.68;80.99
51259;BME280;37327;54.254;18.504;2023-03-26T12:48:03;99279.87;;;9.62;81.90
51259;BME280;37327;54.254;18.504;2023-03-26T13:12:32;99301.16;;;8.76;89.22
51259;BME280;37327;54.254;18.504;2023-03-26T13:16:08;99313.20;;;8.86;90.81
51259;BME280;37327;54.254;18.504;2023-03-26T13:19:39;99305.38;;;8.98;91.92
51259;BME280;37327;54.254;18.504;2023-03-26T13:23:08;99303.56;;;9.05;91.21
51259;BME280;37327;54.254;18.504;2023-03-26T13:26:39;99305.01;;;9.08;89.93
51259;BME280;37327;54.254;18.504;2023-03-26T13:37:15;99304.48;;;9.26;86.65
51259;BME280;37327;54.254;18.504;2023-03-26T13:40:41;99306.73;;;9.22;85.81
51259;BME280;37327;54.254;18.504;2023-03-26T13:47:32;99311.42;;;9.00;84.06
51259;BME280;37327;54.254;18.504;2023-03-26T14:01:28;99317.57;;;8.87;81.79
51259;BME280;37327;54.254;18.504;2023-03-26T14:04:55;99313.83;;;8.88;81.31
51259;BME280;37327;54.254;18.504;2023-03-26T14:08:22;99308.69;;;8.94;81.13
51259;BME280;37327;54.254;18.504;2023-03-26T14:30:49;99303.28;;;8.87;74.84
51259;BME280;37327;54.254;18.504;2023-03-26T14:34:26;99300.74;;;8.79;74.42
51259;BME280;37327;54.254;18.504;2023-03-26T14:37:55;99297.02;;;8.73;74.33
51259;BME280;37327;54.254;18.504;2023-03-26T14:41:24;99306.66;;;8.61;73.67
51259;BME280;37327;54.254;18.504;2023-03-26T14:55:17;99294.82;;;8.55;74.75
51259;BME280;37327;54.254;18.504;2023-03-26T15:02:28;99295.12;;;8.39;74.61
51259;BME280;37327;54.254;18.504;2023-03-26T15:12:53;99306.50;;;8.41;76.24
51259;BME280;37327;54.254;18.504;2023-03-26T15:19:55;99308.05;;;8.50;77.10
51259;BME280;37327;54.254;18.504;2023-03-26T15:34:23;99323.69;;;8.40;75.80
51259;BME280;37327;54.254;18.504;2023-03-26T15:37:31;99335.20;;;8.34;75.57
51259;BME280;37327;54.254;18.504;2023-03-26T16:12:30;99372.02;;;7.10;78.91
51259;BME280;37327;54.254;18.504;2023-03-26T16:16:10;99388.22;;;7.02;79.69
51259;BME280;37327;54.254;18.504;2023-03-26T16:22:54;99382.13;;;6.79;79.79
51259;BME280;37327;54.254;18.504;2023-03-26T16:26:21;99393.30;;;6.67;79.97
51259;BME280;37327;54.254;18.504;2023-03-26T16:33:13;99399.48;;;6.53;79.83
51259;BME280;37327;54.254;18.504;2023-03-26T16:57:27;99419.77;;;5.86;78.73
51259;BME280;37327;54.254;18.504;2023-03-26T17:04:19;99427.55;;;5.73;79.25
51259;BME280;37327;54.254;18.504;2023-03-26T17:07:47;99437.29;;;5.66;78.74
51259;BME280;37327;54.254;18.504;2023-03-26T17:32:10;99468.18;;;5.06;78.37
51259;BME280;37327;54.254;18.504;2023-03-26T17:35:40;99462.66;;;4.99;78.65
51259;BME280;37327;54.254;18.504;2023-03-26T17:42:33;99478.59;;;4.76;77.14
51259;BME280;37327;54.254;18.504;2023-03-26T17:45:53;99472.59;;;4.66;77.01
51259;BME280;37327;54.254;18.504;2023-03-26T17:49:18;99480.46;;;4.59;77.51
51259;BME280;37327;54.254;18.504;2023-03-26T17:56:13;99491.80;;;4.45;77.02
51259;BME280;37327;54.254;18.504;2023-03-26T17:59:32;99484.81;;;4.35;76.85
51259;BME280;37327;54.254;18.504;2023-03-26T18:03:04;99499.15;;;4.26;76.64
51259;BME280;37327;54.254;18.504;2023-03-26T18:16:56;99491.11;;;4.02;77.61
51259;BME280;37327;54.254;18.504;2023-03-26T18:20:23;99487.25;;;3.96;78.17
51259;BME280;37327;54.254;18.504;2023-03-26T18:23:45;99489.41;;;3.92;78.34
51259;BME280;37327;54.254;18.504;2023-03-26T18:27:06;99491.91;;;3.86;78.57
51259;BME280;37327;54.254;18.504;2023-03-26T18:30:27;99493.23;;;3.82;79.46
51259;BME280;37327;54.254;18.504;2023-03-26T18:33:47;99492.41;;;3.81;79.05
51259;BME280;37327;54.254;18.504;2023-03-26T18:40:40;99492.06;;;3.84;79.36
51259;BME280;37327;54.254;18.504;2023-03-26T18:44:04;99476.90;;;3.85;79.88
51259;BME280;37327;54.254;18.504;2023-03-26T18:47:22;99480.40;;;3.85;79.39
51259;BME280;37327;54.254;18.504;2023-03-26T18:50:41;99478.72;;;3.84;80.01
51259;BME280;37327;54.254;18.504;2023-03-26T18:54:01;99479.89;;;3.82;80.38
51259;BME280;37327;54.254;18.504;2023-03-26T18:57:23;99478.70;;;3.76;79.83
51259;BME280;37327;54.254;18.504;2023-03-26T19:00:41;99473.86;;;3.71;80.23
51259;BME280;37327;54.254;18.504;2023-03-26T19:04:05;99473.34;;;3.68;80.63
51259;BME280;37327;54.254;18.504;2023-03-26T19:07:25;99472.98;;;3.63;80.50
51259;BME280;37327;54.254;18.504;2023-03-26T19:10:44;99467.13;;;3.59;80.52
51259;BME280;37327;54.254;18.504;2023-03-26T19:14:14;99469.31;;;3.55;80.61
51259;BME280;37327;54.254;18.504;2023-03-26T19:17:37;99461.46;;;3.54;81.09
51259;BME280;37327;54.254;18.504;2023-03-26T19:20:58;99452.95;;;3.50;81.26
51259;BME280;37327;54.254;18.504;2023-03-26T19:24:18;99446.92;;;3.48;81.25
51259;BME280;37327;54.254;18.504;2023-03-26T19:27:37;99445.44;;;3.46;81.59
51259;BME280;37327;54.254;18.504;2023-03-26T19:30:56;99442.24;;;3.42;81.83
51259;BME280;37327;54.254;18.504;2023-03-26T19:37:51;99448.23;;;3.36;82.58
51259;BME280;37327;54.254;18.504;2023-03-26T19:44:42;99450.23;;;3.34;83.33
51259;BME280;37327;54.254;18.504;2023-03-26T19:48:00;99454.71;;;3.33;83.41
51259;BME280;37327;54.254;18.504;2023-03-26T19:51:20;99445.04;;;3.32;83.43
51259;BME280;37327;54.254;18.504;2023-03-26T19:54:47;99454.86;;;3.32;83.89
51259;BME280;37327;54.254;18.504;2023-03-26T19:58:06;99452.52;;;3.29;84.21
51259;BME280;37327;54.254;18.504;2023-03-26T20:01:26;99448.36;;;3.26;84.26
51259;BME280;37327;54.254;18.504;2023-03-26T20:04:45;99448.36;;;3.26;84.68
51259;BME280;37327;54.254;18.504;2023-03-26T20:11:35;99441.52;;;3.32;85.10
51259;BME280;37327;54.254;18.504;2023-03-26T20:14:56;99443.88;;;3.35;85.54
51259;BME280;37327;54.254;18.504;2023-03-26T20:18:13;99433.52;;;3.32;85.43
51259;BME280;37327;54.254;18.504;2023-03-26T20:21:31;99430.51;;;3.27;85.59
51259;BME280;37327;54.254;18.504;2023-03-26T20:24:53;99425.48;;;3.24;85.93
51259;BME280;37327;54.254;18.504;2023-03-26T20:28:11;99423.84;;;3.23;86.36
51259;BME280;37327;54.254;18.504;2023-03-26T20:31:29;99422.15;;;3.22;86.71
51259;BME280;37327;54.254;18.504;2023-03-26T20:34:48;99417.83;;;3.21;86.92
51259;BME280;37327;54.254;18.504;2023-03-26T20:38:05;99418.96;;;3.18;87.40
51259;BME280;37327;54.254;18.504;2023-03-26T20:41:25;99418.47;;;3.14;87.59
51259;BME280;37327;54.254;18.504;2023-03-26T20:44:42;99417.09;;;3.10;87.89
51259;BME280;37327;54.254;18.504;2023-03-26T20:48:00;99414.43;;;3.10;88.43
51259;BME280;37327;54.254;18.504;2023-03-26T20:51:19;99421.60;;;3.10;88.69
51259;BME280;37327;54.254;18.504;2023-03-26T20:54:36;99417.09;;;3.10;88.82
51259;BME280;37327;54.254;18.504;2023-03-26T20:57:53;99414.62;;;3.09;89.07
51259;BME280;37327;54.254;18.504;2023-03-26T21:01:12;99409.43;;;3.07;89.08
51259;BME280;37327;54.254;18.504;2023-03-26T21:04:29;99415.75;;;3.06;89.35
51259;BME280;37327;54.254;18.504;2023-03-26T21:07:48;99414.40;;;3.02;89.68
51259;BME280;37327;54.254;18.504;2023-03-26T21:11:16;99416.39;;;3.00;89.94
51259;BME280;37327;54.254;18.504;2023-03-26T21:14:35;99425.07;;;3.02;90.06
51259;BME280;37327;54.254;18.504;2023-03-26T21:17:59;99425.59;;;3.06;90.53
51259;BME280;37327;54.254;18.504;2023-03-26T21:21:27;99428.92;;;3.08;90.62
51259;BME280;37327;54.254;18.504;2023-03-26T21:24:55;99421.08;;;3.06;90.51
51259;BME280;37327;54.254;18.504;2023-03-26T21:31:43;99413.72;;;3.00;90.87
51259;BME280;37327;54.254;18.504;2023-03-26T21:35:02;99414.06;;;2.97;91.28
51259;BME280;37327;54.254;18.504;2023-03-26T21:38:21;99420.68;;;2.93;91.60
51259;BME280;37327;54.254;18.504;2023-03-26T21:41:43;99417.67;;;2.88;92.06
51259;BME280;37327;54.254;18.504;2023-03-26T21:45:03;99420.13;;;2.81;91.88
51259;BME280;37327;54.254;18.504;2023-03-26T21:48:22;99419.63;;;2.78;92.40
51259;BME280;37327;54.254;18.504;2023-03-26T21:51:40;99424.96;;;2.78;93.08
51259;BME280;37327;54.254;18.504;2023-03-26T21:54:59;99418.95;;;2.75;93.53
51259;BME280;37327;54.254;18.504;2023-03-26T21:58:28;99423.27;;;2.76;94.06
51259;BME280;37327;54.254;18.504;2023-03-26T22:08:48;99432.16;;;2.85;94.79
51259;BME280;37327;54.254;18.504;2023-03-26T22:12:05;99428.00;;;2.91;95.05
51259;BME280;37327;54.254;18.504;2023-03-26T22:15:24;99436.53;;;2.94;95.49
51259;BME280;37327;54.254;18.504;2023-03-26T22:18:46;99438.55;;;3.01;95.46
51259;BME280;37327;54.254;18.504;2023-03-26T22:22:03;99442.76;;;3.03;95.79
51259;BME280;37327;54.254;18.504;2023-03-26T22:25:22;99446.77;;;3.07;96.01
51259;BME280;37327;54.254;18.504;2023-03-26T22:28:39;99441.59;;;3.06;95.88
51259;BME280;37327;54.254;18.504;2023-03-26T22:31:57;99435.09;;;3.08;95.55
51259;BME280;37327;54.254;18.504;2023-03-26T22:35:15;99448.77;;;3.05;95.16
51259;BME280;37327;54.254;18.504;2023-03-26T22:38:32;99446.09;;;3.05;95.01
51259;BME280;37327;54.254;18.504;2023-03-26T22:41:50;99455.07;;;3.04;94.65
51259;BME280;37327;54.254;18.504;2023-03-26T22:45:08;99451.42;;;3.05;94.33
51259;BME280;37327;54.254;18.504;2023-03-26T22:48:25;99454.28;;;3.12;94.40
51259;BME280;37327;54.254;18.504;2023-03-26T22:51:43;99461.30;;;3.13;93.64
51259;BME280;37327;54.254;18.504;2023-03-26T22:55:00;99461.15;;;3.14;93.14
51259;BME280;37327;54.254;18.504;2023-03-26T22:58:18;99462.80;;;3.15;92.43
51259;BME280;37327;54.254;18.504;2023-03-26T23:01:36;99467.30;;;3.15;91.80
51259;BME280;37327;54.254;18.504;2023-03-26T23:04:54;99459.16;;;3.16;91.63
51259;BME280;37327;54.254;18.504;2023-03-26T23:08:11;99464.49;;;3.16;91.67
51259;BME280;37327;54.254;18.504;2023-03-26T23:11:28;99466.98;;;3.18;91.29
51259;BME280;37327;54.254;18.504;2023-03-26T23:14:46;99464.49;;;3.16;90.91
51259;BME280;37327;54.254;18.504;2023-03-26T23:18:08;99457.77;;;3.12;90.23
51259;BME280;37327;54.254;18.504;2023-03-26T23:21:25;99458.63;;;3.13;90.47
51259;BME280;37327;54.254;18.504;2023-03-26T23:24:42;99461.30;;;3.13;90.38
51259;BME280;37327;54.254;18.504;2023-03-26T23:28:00;99469.30;;;3.13;90.44
51259;BME280;37327;54.254;18.504;2023-03-26T23:31:19;99463.81;;;3.14;90.54
51259;BME280;37327;54.254;18.504;2023-03-26T23:34:37;99470.28;;;3.12;90.26
51259;BME280;37327;54.254;18.504;2023-03-26T23:37:54;99466.11;;;3.09;90.39
51259;BME280;37327;54.254;18.504;2023-03-26T23:41:13;99469.30;;;3.13;90.59
51259;BME280;37327;54.254;18.504;2023-03-26T23:44:31;99471.81;;;3.14;90.82
51259;BME280;37327;54.254;18.504;2023-03-26T23:47:51;99478.96;;;3.14;90.48
51259;BME280;37327;54.254;18.504;2023-03-26T23:51:08;99477.14;;;3.14;90.87
51259;BME280;37327;54.254;18.504;2023-03-26T23:54:27;99484.44;;;3.12;90.63
51259;BME280;37327;54.254;18.504;2023-03-26T23:57:46;99479.44;;;3.09;89.97
